sensor_id;sensor_type;location;lat;lon;timestamp;P1;durP1;ratioP1;P2;durP2;ratioP2
41921;SDS011;27609;51.002;5.354;2023-07-20T00:01:45;7.65;;;4.03;;
41921;SDS011;27609;51.002;5.354;2023-07-20T00:04:11;5.82;;;3.60;;
41921;SDS011;27609;51.002;5.354;2023-07-20T00:06:36;6.88;;;3.70;;
41921;SDS011;27609;51.002;5.354;2023-07-20T00:09:05;7.80;;;3.78;;
41921;SDS011;27609;51.002;5.354;2023-07-20T00:11:32;5.40;;;3.55;;
41921;SDS011;27609;51.002;5.354;2023-07-20T00:14:01;11.20;;;3.83;;
41921;SDS011;27609;51.002;5.354;2023-07-20T00:16:27;10.98;;;4.25;;
41921;SDS011;27609;51.002;5.354;2023-07-20T00:18:53;6.43;;;3.97;;
41921;SDS011;27609;51.002;5.354;2023-07-20T00:21:18;6.07;;;4.18;;
41921;SDS011;27609;51.002;5.354;2023-07-20T00:23:44;10.25;;;4.30;;
41921;SDS011;27609;51.002;5.354;2023-07-20T00:26:10;5.80;;;3.80;;
41921;SDS011;27609;51.002;5.354;2023-07-20T00:28:36;9.55;;;4.05;;
41921;SDS011;27609;51.002;5.354;2023-07-20T00:31:01;6.50;;;4.10;;
41921;SDS011;27609;51.002;5.354;2023-07-20T00:33:27;8.95;;;4.20;;
41921;SDS011;27609;51.002;5.354;2023-07-20T00:35:53;8.05;;;4.20;;
41921;SDS011;27609;51.002;5.354;2023-07-20T00:38:19;7.18;;;4.13;;
41921;SDS011;27609;51.002;5.354;2023-07-20T00:40:45;6.25;;;4.15;;
41921;SDS011;27609;51.002;5.354;2023-07-20T00:43:11;7.63;;;4.30;;
41921;SDS011;27609;51.002;5.354;2023-07-20T00:45:37;4.20;;;3.53;;
41921;SDS011;27609;51.002;5.354;2023-07-20T00:48:04;8.30;;;4.50;;
41921;SDS011;27609;51.002;5.354;2023-07-20T00:50:31;7.05;;;3.80;;
41921;SDS011;27609;51.002;5.354;2023-07-20T00:52:58;8.45;;;4.45;;
41921;SDS011;27609;51.002;5.354;2023-07-20T00:55:24;6.18;;;4.25;;
41921;SDS011;27609;51.002;5.354;2023-07-20T00:57:51;9.30;;;4.70;;
41921;SDS011;27609;51.002;5.354;2023-07-20T01:00:18;5.90;;;4.15;;
41921;SDS011;27609;51.002;5.354;2023-07-20T01:02:43;5.70;;;3.75;;
41921;SDS011;27609;51.002;5.354;2023-07-20T01:05:10;6.53;;;3.70;;
41921;SDS011;27609;51.002;5.354;2023-07-20T01:08:12;6.28;;;3.60;;
41921;SDS011;27609;51.002;5.354;2023-07-20T01:10:37;5.35;;;3.80;;
41921;SDS011;27609;51.002;5.354;2023-07-20T01:13:07;5.13;;;3.25;;
41921;SDS011;27609;51.002;5.354;2023-07-20T01:15:35;6.07;;;3.42;;
41921;SDS011;27609;51.002;5.354;2023-07-20T01:18:00;3.67;;;3.05;;
41921;SDS011;27609;51.002;5.354;2023-07-20T01:20:26;7.13;;;3.40;;
41921;SDS011;27609;51.002;5.354;2023-07-20T01:33:36;5.90;;;3.28;;
41921;SDS011;27609;51.002;5.354;2023-07-20T01:36:03;8.40;;;3.58;;
41921;SDS011;27609;51.002;5.354;2023-07-20T01:38:30;8.45;;;3.65;;
41921;SDS011;27609;51.002;5.354;2023-07-20T01:40:56;6.25;;;3.10;;
41921;SDS011;27609;51.002;5.354;2023-07-20T01:43:23;9.27;;;3.53;;
41921;SDS011;27609;51.002;5.354;2023-07-20T01:45:48;5.47;;;3.10;;
41921;SDS011;27609;51.002;5.354;2023-07-20T01:48:14;6.53;;;3.55;;
41921;SDS011;27609;51.002;5.354;2023-07-20T01:50:39;7.45;;;3.47;;
41921;SDS011;27609;51.002;5.354;2023-07-20T01:53:05;11.98;;;3.13;;
41921;SDS011;27609;51.002;5.354;2023-07-20T01:55:31;8.32;;;3.53;;
41921;SDS011;27609;51.002;5.354;2023-07-20T01:57:57;7.30;;;3.53;;
41921;SDS011;27609;51.002;5.354;2023-07-20T02:00:25;8.70;;;3.65;;
41921;SDS011;27609;51.002;5.354;2023-07-20T02:02:50;7.93;;;3.75;;
41921;SDS011;27609;51.002;5.354;2023-07-20T02:05:16;7.65;;;3.30;;
41921;SDS011;27609;51.002;5.354;2023-07-20T02:07:42;6.60;;;3.45;;
41921;SDS011;27609;51.002;5.354;2023-07-20T02:10:08;9.95;;;3.72;;
41921;SDS011;27609;51.002;5.354;2023-07-20T02:12:34;9.25;;;3.95;;
41921;SDS011;27609;51.002;5.354;2023-07-20T02:15:00;4.97;;;3.20;;
41921;SDS011;27609;51.002;5.354;2023-07-20T02:17:27;8.70;;;3.40;;
41921;SDS011;27609;51.002;5.354;2023-07-20T02:19:53;4.65;;;3.78;;
41921;SDS011;27609;51.002;5.354;2023-07-20T02:22:19;5.85;;;3.35;;
41921;SDS011;27609;51.002;5.354;2023-07-20T02:24:45;5.72;;;3.28;;
41921;SDS011;27609;51.002;5.354;2023-07-20T02:27:11;8.00;;;3.13;;
41921;SDS011;27609;51.002;5.354;2023-07-20T02:29:37;6.40;;;3.60;;
41921;SDS011;27609;51.002;5.354;2023-07-20T02:32:03;7.75;;;3.90;;
41921;SDS011;27609;51.002;5.354;2023-07-20T02:34:29;7.93;;;3.30;;
41921;SDS011;27609;51.002;5.354;2023-07-20T02:36:55;6.32;;;3.50;;
41921;SDS011;27609;51.002;5.354;2023-07-20T02:39:26;8.23;;;3.78;;
41921;SDS011;27609;51.002;5.354;2023-07-20T02:41:53;6.68;;;3.88;;
41921;SDS011;27609;51.002;5.354;2023-07-20T02:44:18;6.95;;;3.67;;
41921;SDS011;27609;51.002;5.354;2023-07-20T02:46:44;8.70;;;3.88;;
41921;SDS011;27609;51.002;5.354;2023-07-20T02:49:10;9.27;;;3.85;;
41921;SDS011;27609;51.002;5.354;2023-07-20T02:51:36;5.53;;;3.63;;
41921;SDS011;27609;51.002;5.354;2023-07-20T02:54:01;8.18;;;3.90;;
41921;SDS011;27609;51.002;5.354;2023-07-20T02:56:28;8.10;;;3.78;;
41921;SDS011;27609;51.002;5.354;2023-07-20T02:58:54;7.68;;;4.45;;
41921;SDS011;27609;51.002;5.354;2023-07-20T03:01:19;6.80;;;4.15;;
41921;SDS011;27609;51.002;5.354;2023-07-20T03:03:45;6.82;;;3.90;;
41921;SDS011;27609;51.002;5.354;2023-07-20T03:06:16;7.30;;;3.83;;
41921;SDS011;27609;51.002;5.354;2023-07-20T03:08:42;9.13;;;4.00;;
41921;SDS011;27609;51.002;5.354;2023-07-20T03:13:39;9.80;;;3.88;;
41921;SDS011;27609;51.002;5.354;2023-07-20T03:16:04;12.07;;;4.78;;
41921;SDS011;27609;51.002;5.354;2023-07-20T03:18:30;5.07;;;3.88;;
41921;SDS011;27609;51.002;5.354;2023-07-20T03:20:56;7.43;;;3.83;;
41921;SDS011;27609;51.002;5.354;2023-07-20T03:23:22;10.60;;;4.50;;
41921;SDS011;27609;51.002;5.354;2023-07-20T03:25:47;7.03;;;4.07;;
41921;SDS011;27609;51.002;5.354;2023-07-20T03:28:13;6.45;;;3.63;;
41921;SDS011;27609;51.002;5.354;2023-07-20T03:30:39;8.70;;;4.10;;
41921;SDS011;27609;51.002;5.354;2023-07-20T03:33:04;8.63;;;4.43;;
41921;SDS011;27609;51.002;5.354;2023-07-20T03:35:30;14.95;;;4.78;;
41921;SDS011;27609;51.002;5.354;2023-07-20T03:37:56;11.52;;;4.25;;
41921;SDS011;27609;51.002;5.354;2023-07-20T03:40:22;11.20;;;4.22;;
41921;SDS011;27609;51.002;5.354;2023-07-20T03:42:48;11.20;;;4.28;;
41921;SDS011;27609;51.002;5.354;2023-07-20T03:45:13;7.40;;;4.45;;
41921;SDS011;27609;51.002;5.354;2023-07-20T03:47:39;12.15;;;5.18;;
41921;SDS011;27609;51.002;5.354;2023-07-20T03:50:05;8.23;;;4.43;;
41921;SDS011;27609;51.002;5.354;2023-07-20T03:52:31;7.60;;;4.22;;
41921;SDS011;27609;51.002;5.354;2023-07-20T03:54:57;9.93;;;5.03;;
41921;SDS011;27609;51.002;5.354;2023-07-20T03:57:23;10.77;;;4.53;;
41921;SDS011;27609;51.002;5.354;2023-07-20T03:59:48;6.47;;;5.03;;
41921;SDS011;27609;51.002;5.354;2023-07-20T04:02:14;9.52;;;4.80;;
41921;SDS011;27609;51.002;5.354;2023-07-20T04:04:40;7.78;;;4.43;;
41921;SDS011;27609;51.002;5.354;2023-07-20T04:07:06;10.93;;;4.93;;
41921;SDS011;27609;51.002;5.354;2023-07-20T04:09:32;7.22;;;4.70;;
41921;SDS011;27609;51.002;5.354;2023-07-20T04:11:58;13.13;;;5.32;;
41921;SDS011;27609;51.002;5.354;2023-07-20T04:14:24;8.77;;;5.22;;
41921;SDS011;27609;51.002;5.354;2023-07-20T04:16:49;10.18;;;6.13;;
41921;SDS011;27609;51.002;5.354;2023-07-20T04:19:16;12.32;;;5.45;;
41921;SDS011;27609;51.002;5.354;2023-07-20T04:21:43;8.10;;;5.95;;
41921;SDS011;27609;51.002;5.354;2023-07-20T04:24:08;9.35;;;5.55;;
41921;SDS011;27609;51.002;5.354;2023-07-20T04:26:34;10.13;;;5.55;;
41921;SDS011;27609;51.002;5.354;2023-07-20T04:29:00;11.38;;;7.07;;
41921;SDS011;27609;51.002;5.354;2023-07-20T04:31:26;10.60;;;6.10;;
41921;SDS011;27609;51.002;5.354;2023-07-20T04:33:52;11.52;;;6.00;;
41921;SDS011;27609;51.002;5.354;2023-07-20T04:36:17;13.13;;;7.82;;
41921;SDS011;27609;51.002;5.354;2023-07-20T04:38:47;14.68;;;7.00;;
41921;SDS011;27609;51.002;5.354;2023-07-20T04:41:13;16.38;;;7.20;;
41921;SDS011;27609;51.002;5.354;2023-07-20T04:43:42;14.63;;;7.30;;
41921;SDS011;27609;51.002;5.354;2023-07-20T04:46:09;11.05;;;7.47;;
41921;SDS011;27609;51.002;5.354;2023-07-20T04:48:35;16.58;;;8.40;;
41921;SDS011;27609;51.002;5.354;2023-07-20T04:51:01;14.15;;;8.43;;
41921;SDS011;27609;51.002;5.354;2023-07-20T04:53:27;12.10;;;7.90;;
41921;SDS011;27609;51.002;5.354;2023-07-20T04:55:52;10.05;;;7.35;;
41921;SDS011;27609;51.002;5.354;2023-07-20T04:58:19;11.95;;;5.80;;
41921;SDS011;27609;51.002;5.354;2023-07-20T05:00:47;14.45;;;6.18;;
41921;SDS011;27609;51.002;5.354;2023-07-20T05:03:13;9.50;;;5.47;;
41921;SDS011;27609;51.002;5.354;2023-07-20T05:05:39;11.32;;;5.50;;
41921;SDS011;27609;51.002;5.354;2023-07-20T05:08:05;10.18;;;6.18;;
41921;SDS011;27609;51.002;5.354;2023-07-20T05:10:31;10.52;;;6.82;;
41921;SDS011;27609;51.002;5.354;2023-07-20T05:12:57;10.90;;;6.88;;
41921;SDS011;27609;51.002;5.354;2023-07-20T05:15:23;11.73;;;6.35;;
41921;SDS011;27609;51.002;5.354;2023-07-20T05:17:49;16.15;;;7.35;;
41921;SDS011;27609;51.002;5.354;2023-07-20T05:20:14;14.43;;;8.38;;
41921;SDS011;27609;51.002;5.354;2023-07-20T05:22:40;13.50;;;7.45;;
41921;SDS011;27609;51.002;5.354;2023-07-20T05:25:07;9.98;;;8.10;;
41921;SDS011;27609;51.002;5.354;2023-07-20T05:27:35;11.13;;;7.38;;
41921;SDS011;27609;51.002;5.354;2023-07-20T05:30:02;12.80;;;7.38;;
41921;SDS011;27609;51.002;5.354;2023-07-20T05:32:28;14.77;;;8.27;;
41921;SDS011;27609;51.002;5.354;2023-07-20T05:34:54;17.27;;;9.95;;
41921;SDS011;27609;51.002;5.354;2023-07-20T05:37:20;15.02;;;8.98;;
41921;SDS011;27609;51.002;5.354;2023-07-20T05:39:45;12.30;;;8.30;;
41921;SDS011;27609;51.002;5.354;2023-07-20T05:42:11;17.80;;;11.32;;
41921;SDS011;27609;51.002;5.354;2023-07-20T05:44:37;18.05;;;13.05;;
41921;SDS011;27609;51.002;5.354;2023-07-20T05:47:03;23.08;;;16.60;;
41921;SDS011;27609;51.002;5.354;2023-07-20T05:49:29;21.88;;;16.23;;
41921;SDS011;27609;51.002;5.354;2023-07-20T05:51:55;17.15;;;10.68;;
41921;SDS011;27609;51.002;5.354;2023-07-20T05:54:22;18.27;;;11.18;;
41921;SDS011;27609;51.002;5.354;2023-07-20T05:56:49;17.17;;;11.32;;
41921;SDS011;27609;51.002;5.354;2023-07-20T05:59:15;20.17;;;14.63;;
41921;SDS011;27609;51.002;5.354;2023-07-20T06:01:41;21.17;;;14.93;;
41921;SDS011;27609;51.002;5.354;2023-07-20T06:04:07;19.35;;;14.88;;
41921;SDS011;27609;51.002;5.354;2023-07-20T06:06:32;24.00;;;16.13;;
41921;SDS011;27609;51.002;5.354;2023-07-20T06:09:00;19.83;;;14.05;;
41921;SDS011;27609;51.002;5.354;2023-07-20T06:11:29;17.40;;;11.13;;
41921;SDS011;27609;51.002;5.354;2023-07-20T06:13:56;18.80;;;11.93;;
41921;SDS011;27609;51.002;5.354;2023-07-20T06:16:22;15.32;;;10.65;;
41921;SDS011;27609;51.002;5.354;2023-07-20T06:18:47;12.80;;;10.60;;
41921;SDS011;27609;51.002;5.354;2023-07-20T06:21:13;15.23;;;11.13;;
41921;SDS011;27609;51.002;5.354;2023-07-20T06:23:39;16.10;;;9.25;;
41921;SDS011;27609;51.002;5.354;2023-07-20T06:26:06;14.52;;;11.48;;
41921;SDS011;27609;51.002;5.354;2023-07-20T06:28:32;15.52;;;11.05;;
41921;SDS011;27609;51.002;5.354;2023-07-20T06:30:59;18.35;;;13.23;;
41921;SDS011;27609;51.002;5.354;2023-07-20T06:33:25;13.70;;;10.90;;
41921;SDS011;27609;51.002;5.354;2023-07-20T06:35:51;15.30;;;11.20;;
41921;SDS011;27609;51.002;5.354;2023-07-20T06:38:18;18.17;;;11.75;;
41921;SDS011;27609;51.002;5.354;2023-07-20T06:40:45;18.45;;;11.90;;
41921;SDS011;27609;51.002;5.354;2023-07-20T06:43:11;16.23;;;10.88;;
41921;SDS011;27609;51.002;5.354;2023-07-20T06:45:37;17.45;;;11.63;;
41921;SDS011;27609;51.002;5.354;2023-07-20T06:48:03;18.85;;;12.20;;
41921;SDS011;27609;51.002;5.354;2023-07-20T06:50:29;16.27;;;11.52;;
41921;SDS011;27609;51.002;5.354;2023-07-20T06:52:55;17.70;;;11.68;;
41921;SDS011;27609;51.002;5.354;2023-07-20T06:55:20;15.10;;;10.90;;
41921;SDS011;27609;51.002;5.354;2023-07-20T06:57:46;11.27;;;8.93;;
41921;SDS011;27609;51.002;5.354;2023-07-20T07:00:12;14.13;;;10.32;;
41921;SDS011;27609;51.002;5.354;2023-07-20T07:02:38;11.85;;;8.77;;
41921;SDS011;27609;51.002;5.354;2023-07-20T07:05:04;14.85;;;9.85;;
41921;SDS011;27609;51.002;5.354;2023-07-20T07:07:30;13.23;;;9.70;;
41921;SDS011;27609;51.002;5.354;2023-07-20T07:09:56;11.50;;;9.15;;
41921;SDS011;27609;51.002;5.354;2023-07-20T07:12:21;11.85;;;9.25;;
41921;SDS011;27609;51.002;5.354;2023-07-20T07:14:47;12.55;;;8.98;;
41921;SDS011;27609;51.002;5.354;2023-07-20T07:17:13;12.65;;;9.45;;
41921;SDS011;27609;51.002;5.354;2023-07-20T07:19:39;9.93;;;7.63;;
41921;SDS011;27609;51.002;5.354;2023-07-20T07:22:05;11.82;;;9.10;;
41921;SDS011;27609;51.002;5.354;2023-07-20T07:24:31;10.73;;;9.13;;
41921;SDS011;27609;51.002;5.354;2023-07-20T07:27:01;10.90;;;8.60;;
41921;SDS011;27609;51.002;5.354;2023-07-20T07:29:27;12.02;;;8.55;;
41921;SDS011;27609;51.002;5.354;2023-07-20T07:31:53;10.93;;;9.10;;
41921;SDS011;27609;51.002;5.354;2023-07-20T07:34:18;12.82;;;9.23;;
41921;SDS011;27609;51.002;5.354;2023-07-20T07:36:44;12.48;;;10.20;;
41921;SDS011;27609;51.002;5.354;2023-07-20T07:39:10;13.38;;;10.55;;
41921;SDS011;27609;51.002;5.354;2023-07-20T07:41:36;15.50;;;11.15;;
41921;SDS011;27609;51.002;5.354;2023-07-20T07:44:02;14.13;;;10.00;;
41921;SDS011;27609;51.002;5.354;2023-07-20T07:46:27;14.07;;;8.48;;
41921;SDS011;27609;51.002;5.354;2023-07-20T07:48:53;14.32;;;9.35;;
41921;SDS011;27609;51.002;5.354;2023-07-20T07:51:19;15.13;;;11.32;;
41921;SDS011;27609;51.002;5.354;2023-07-20T07:53:46;15.02;;;10.70;;
41921;SDS011;27609;51.002;5.354;2023-07-20T07:56:11;15.80;;;8.55;;
41921;SDS011;27609;51.002;5.354;2023-07-20T07:58:37;13.98;;;8.25;;
41921;SDS011;27609;51.002;5.354;2023-07-20T08:01:03;7.45;;;6.72;;
41921;SDS011;27609;51.002;5.354;2023-07-20T08:03:29;10.25;;;6.35;;
41921;SDS011;27609;51.002;5.354;2023-07-20T08:05:55;6.40;;;5.32;;
41921;SDS011;27609;51.002;5.354;2023-07-20T08:08:21;9.25;;;5.70;;
41921;SDS011;27609;51.002;5.354;2023-07-20T08:10:47;8.85;;;6.03;;
41921;SDS011;27609;51.002;5.354;2023-07-20T08:13:13;8.70;;;5.72;;
41921;SDS011;27609;51.002;5.354;2023-07-20T08:15:39;13.85;;;7.65;;
41921;SDS011;27609;51.002;5.354;2023-07-20T08:18:06;5.93;;;4.95;;
41921;SDS011;27609;51.002;5.354;2023-07-20T08:20:33;7.70;;;4.72;;
41921;SDS011;27609;51.002;5.354;2023-07-20T08:23:00;6.05;;;5.10;;
41921;SDS011;27609;51.002;5.354;2023-07-20T08:25:26;7.05;;;4.32;;
41921;SDS011;27609;51.002;5.354;2023-07-20T08:27:52;6.63;;;4.22;;
41921;SDS011;27609;51.002;5.354;2023-07-20T08:30:20;8.93;;;6.65;;
41921;SDS011;27609;51.002;5.354;2023-07-20T08:32:48;7.75;;;5.55;;
41921;SDS011;27609;51.002;5.354;2023-07-20T08:35:14;7.38;;;4.50;;
41921;SDS011;27609;51.002;5.354;2023-07-20T08:37:40;4.40;;;3.58;;
41921;SDS011;27609;51.002;5.354;2023-07-20T08:40:06;3.58;;;2.97;;
41921;SDS011;27609;51.002;5.354;2023-07-20T08:42:34;2.90;;;2.47;;
41921;SDS011;27609;51.002;5.354;2023-07-20T08:45:00;5.85;;;3.33;;
41921;SDS011;27609;51.002;5.354;2023-07-20T08:47:32;3.90;;;3.47;;
41921;SDS011;27609;51.002;5.354;2023-07-20T08:49:58;4.43;;;4.00;;
41921;SDS011;27609;51.002;5.354;2023-07-20T08:52:25;6.40;;;4.18;;
41921;SDS011;27609;51.002;5.354;2023-07-20T08:54:51;4.68;;;4.07;;
41921;SDS011;27609;51.002;5.354;2023-07-20T08:57:18;5.38;;;3.92;;
41921;SDS011;27609;51.002;5.354;2023-07-20T08:59:46;3.97;;;3.58;;
41921;SDS011;27609;51.002;5.354;2023-07-20T09:02:15;6.25;;;3.85;;
41921;SDS011;27609;51.002;5.354;2023-07-20T09:04:43;3.47;;;3.17;;
41921;SDS011;27609;51.002;5.354;2023-07-20T09:07:09;3.00;;;2.70;;
41921;SDS011;27609;51.002;5.354;2023-07-20T09:09:39;4.00;;;2.50;;
41921;SDS011;27609;51.002;5.354;2023-07-20T09:14:38;3.60;;;3.30;;
41921;SDS011;27609;51.002;5.354;2023-07-20T09:17:03;4.60;;;4.03;;
41921;SDS011;27609;51.002;5.354;2023-07-20T09:19:29;4.07;;;2.75;;
41921;SDS011;27609;51.002;5.354;2023-07-20T09:21:55;3.05;;;2.70;;
41921;SDS011;27609;51.002;5.354;2023-07-20T09:24:21;4.32;;;2.50;;
41921;SDS011;27609;51.002;5.354;2023-07-20T09:26:47;2.90;;;2.70;;
41921;SDS011;27609;51.002;5.354;2023-07-20T09:29:13;3.20;;;2.83;;
41921;SDS011;27609;51.002;5.354;2023-07-20T09:31:43;2.65;;;2.22;;
41921;SDS011;27609;51.002;5.354;2023-07-20T09:34:30;2.42;;;2.08;;
41921;SDS011;27609;51.002;5.354;2023-07-20T09:39:26;2.72;;;2.28;;
41921;SDS011;27609;51.002;5.354;2023-07-20T09:41:52;2.58;;;2.38;;
41921;SDS011;27609;51.002;5.354;2023-07-20T09:44:17;4.82;;;3.20;;
41921;SDS011;27609;51.002;5.354;2023-07-20T09:46:48;4.28;;;2.65;;
41921;SDS011;27609;51.002;5.354;2023-07-20T09:49:14;7.05;;;2.90;;
41921;SDS011;27609;51.002;5.354;2023-07-20T09:51:42;5.55;;;2.63;;
41921;SDS011;27609;51.002;5.354;2023-07-20T09:54:09;3.80;;;2.92;;
41921;SDS011;27609;51.002;5.354;2023-07-20T09:56:36;4.97;;;3.25;;
41921;SDS011;27609;51.002;5.354;2023-07-20T09:59:04;5.70;;;2.42;;
41921;SDS011;27609;51.002;5.354;2023-07-20T10:01:29;3.40;;;2.42;;
41921;SDS011;27609;51.002;5.354;2023-07-20T10:03:58;5.57;;;2.53;;
41921;SDS011;27609;51.002;5.354;2023-07-20T10:06:26;2.70;;;2.40;;
41921;SDS011;27609;51.002;5.354;2023-07-20T10:08:55;4.10;;;1.83;;
41921;SDS011;27609;51.002;5.354;2023-07-20T10:11:25;3.30;;;1.70;;
41921;SDS011;27609;51.002;5.354;2023-07-20T10:13:54;1.92;;;1.70;;
41921;SDS011;27609;51.002;5.354;2023-07-20T10:16:46;1.30;;;1.20;;
41921;SDS011;27609;51.002;5.354;2023-07-20T10:21:56;2.08;;;1.88;;
41921;SDS011;27609;51.002;5.354;2023-07-20T10:24:28;3.33;;;1.80;;
41921;SDS011;27609;51.002;5.354;2023-07-20T10:26:56;2.83;;;2.05;;
41921;SDS011;27609;51.002;5.354;2023-07-20T10:29:22;5.38;;;2.40;;
41921;SDS011;27609;51.002;5.354;2023-07-20T10:31:50;2.17;;;1.95;;
41921;SDS011;27609;51.002;5.354;2023-07-20T10:34:16;6.45;;;1.70;;
41921;SDS011;27609;51.002;5.354;2023-07-20T10:36:45;1.90;;;1.80;;
41921;SDS011;27609;51.002;5.354;2023-07-20T10:39:24;1.50;;;1.30;;
41921;SDS011;27609;51.002;5.354;2023-07-20T10:41:59;2.83;;;1.75;;
41921;SDS011;27609;51.002;5.354;2023-07-20T10:44:26;2.67;;;1.77;;
41921;SDS011;27609;51.002;5.354;2023-07-20T10:46:52;1.83;;;1.42;;
41921;SDS011;27609;51.002;5.354;2023-07-20T10:49:27;1.63;;;1.40;;
41921;SDS011;27609;51.002;5.354;2023-07-20T10:51:57;3.17;;;1.60;;
41921;SDS011;27609;51.002;5.354;2023-07-20T10:56:52;1.92;;;1.30;;
41921;SDS011;27609;51.002;5.354;2023-07-20T10:59:41;8.10;;;1.80;;
41921;SDS011;27609;51.002;5.354;2023-07-20T11:02:09;2.00;;;1.80;;
41921;SDS011;27609;51.002;5.354;2023-07-20T11:04:38;1.87;;;1.67;;
41921;SDS011;27609;51.002;5.354;2023-07-20T11:07:05;1.50;;;1.30;;
41921;SDS011;27609;51.002;5.354;2023-07-20T11:09:34;3.37;;;1.60;;
41921;SDS011;27609;51.002;5.354;2023-07-20T11:14:40;1.05;;;0.93;;
41921;SDS011;27609;51.002;5.354;2023-07-20T11:17:17;1.17;;;1.05;;
41921;SDS011;27609;51.002;5.354;2023-07-20T11:19:47;2.45;;;1.02;;
41921;SDS011;27609;51.002;5.354;2023-07-20T11:22:14;1.63;;;1.10;;
41921;SDS011;27609;51.002;5.354;2023-07-20T11:24:42;3.30;;;1.52;;
41921;SDS011;27609;51.002;5.354;2023-07-20T11:27:08;2.20;;;1.17;;
41921;SDS011;27609;51.002;5.354;2023-07-20T11:29:34;2.70;;;1.10;;
41921;SDS011;27609;51.002;5.354;2023-07-20T11:32:02;2.40;;;1.40;;
41921;SDS011;27609;51.002;5.354;2023-07-20T11:34:29;2.55;;;1.35;;
41921;SDS011;27609;51.002;5.354;2023-07-20T11:36:56;2.88;;;0.90;;
41921;SDS011;27609;51.002;5.354;2023-07-20T11:39:22;2.88;;;1.20;;
41921;SDS011;27609;51.002;5.354;2023-07-20T11:41:54;4.53;;;1.55;;
41921;SDS011;27609;51.002;5.354;2023-07-20T11:44:21;1.55;;;1.30;;
41921;SDS011;27609;51.002;5.354;2023-07-20T11:47:02;2.10;;;1.30;;
41921;SDS011;27609;51.002;5.354;2023-07-20T11:49:28;2.20;;;1.10;;
41921;SDS011;27609;51.002;5.354;2023-07-20T11:51:54;1.83;;;1.50;;
41921;SDS011;27609;51.002;5.354;2023-07-20T11:54:21;1.92;;;1.40;;
41921;SDS011;27609;51.002;5.354;2023-07-20T11:56:48;2.60;;;1.80;;
41921;SDS011;27609;51.002;5.354;2023-07-20T11:59:13;1.45;;;1.30;;
41921;SDS011;27609;51.002;5.354;2023-07-20T12:01:39;2.65;;;1.25;;
41921;SDS011;27609;51.002;5.354;2023-07-20T12:04:05;2.15;;;1.33;;
41921;SDS011;27609;51.002;5.354;2023-07-20T12:06:32;4.97;;;1.30;;
41921;SDS011;27609;51.002;5.354;2023-07-20T12:08:58;2.25;;;1.30;;
41921;SDS011;27609;51.002;5.354;2023-07-20T12:11:57;1.73;;;1.27;;
41921;SDS011;27609;51.002;5.354;2023-07-20T12:14:16;1.33;;;1.20;;
41921;SDS011;27609;51.002;5.354;2023-07-20T12:16:42;1.83;;;0.98;;
41921;SDS011;27609;51.002;5.354;2023-07-20T12:19:12;1.08;;;0.85;;
41921;SDS011;27609;51.002;5.354;2023-07-20T12:21:39;2.58;;;1.40;;
41921;SDS011;27609;51.002;5.354;2023-07-20T12:24:07;2.20;;;1.38;;
41921;SDS011;27609;51.002;5.354;2023-07-20T12:29:02;2.17;;;1.20;;
41921;SDS011;27609;51.002;5.354;2023-07-20T12:31:33;2.00;;;1.25;;
41921;SDS011;27609;51.002;5.354;2023-07-20T12:34:01;1.63;;;1.10;;
41921;SDS011;27609;51.002;5.354;2023-07-20T12:36:27;4.82;;;1.00;;
41921;SDS011;27609;51.002;5.354;2023-07-20T12:38:52;2.55;;;1.05;;
41921;SDS011;27609;51.002;5.354;2023-07-20T12:41:18;1.27;;;0.95;;
41921;SDS011;27609;51.002;5.354;2023-07-20T12:43:45;1.52;;;0.90;;
41921;SDS011;27609;51.002;5.354;2023-07-20T12:46:11;1.20;;;1.10;;
41921;SDS011;27609;51.002;5.354;2023-07-20T12:48:38;2.05;;;1.20;;
41921;SDS011;27609;51.002;5.354;2023-07-20T12:51:06;1.75;;;1.42;;
41921;SDS011;27609;51.002;5.354;2023-07-20T12:53:33;1.42;;;1.00;;
41921;SDS011;27609;51.002;5.354;2023-07-20T12:55:59;2.30;;;1.05;;
41921;SDS011;27609;51.002;5.354;2023-07-20T12:58:25;1.23;;;1.10;;
41921;SDS011;27609;51.002;5.354;2023-07-20T13:00:51;1.10;;;1.00;;
41921;SDS011;27609;51.002;5.354;2023-07-20T13:03:17;2.38;;;1.05;;
41921;SDS011;27609;51.002;5.354;2023-07-20T13:05:44;1.20;;;1.10;;
41921;SDS011;27609;51.002;5.354;2023-07-20T13:08:13;1.67;;;1.10;;
41921;SDS011;27609;51.002;5.354;2023-07-20T13:10:40;0.88;;;0.88;;
41921;SDS011;27609;51.002;5.354;2023-07-20T13:13:06;3.22;;;1.27;;
41921;SDS011;27609;51.002;5.354;2023-07-20T13:15:32;1.42;;;0.95;;
41921;SDS011;27609;51.002;5.354;2023-07-20T13:18:05;1.75;;;1.27;;
41921;SDS011;27609;51.002;5.354;2023-07-20T13:20:31;3.22;;;1.20;;
41921;SDS011;27609;51.002;5.354;2023-07-20T13:22:57;1.40;;;1.00;;
41921;SDS011;27609;51.002;5.354;2023-07-20T13:25:22;1.40;;;1.15;;
41921;SDS011;27609;51.002;5.354;2023-07-20T13:27:49;1.35;;;1.08;;
41921;SDS011;27609;51.002;5.354;2023-07-20T13:30:14;1.88;;;0.98;;
41921;SDS011;27609;51.002;5.354;2023-07-20T13:32:44;2.85;;;1.00;;
41921;SDS011;27609;51.002;5.354;2023-07-20T13:35:11;1.05;;;0.93;;
41921;SDS011;27609;51.002;5.354;2023-07-20T13:37:37;1.48;;;1.13;;
41921;SDS011;27609;51.002;5.354;2023-07-20T13:40:03;1.73;;;1.10;;
41921;SDS011;27609;51.002;5.354;2023-07-20T13:42:32;0.98;;;0.98;;
41921;SDS011;27609;51.002;5.354;2023-07-20T13:44:57;1.67;;;1.33;;
41921;SDS011;27609;51.002;5.354;2023-07-20T13:47:23;3.08;;;1.73;;
41921;SDS011;27609;51.002;5.354;2023-07-20T13:49:49;1.30;;;1.20;;
41921;SDS011;27609;51.002;5.354;2023-07-20T13:52:15;1.55;;;1.17;;
41921;SDS011;27609;51.002;5.354;2023-07-20T13:54:40;1.30;;;1.20;;
41921;SDS011;27609;51.002;5.354;2023-07-20T13:57:06;1.98;;;1.20;;
41921;SDS011;27609;51.002;5.354;2023-07-20T13:59:32;1.20;;;1.10;;
41921;SDS011;27609;51.002;5.354;2023-07-20T14:01:57;3.40;;;1.20;;
41921;SDS011;27609;51.002;5.354;2023-07-20T14:04:23;1.55;;;1.00;;
41921;SDS011;27609;51.002;5.354;2023-07-20T14:06:49;1.50;;;1.20;;
41921;SDS011;27609;51.002;5.354;2023-07-20T14:09:15;1.13;;;1.13;;
41921;SDS011;27609;51.002;5.354;2023-07-20T14:11:41;3.63;;;1.75;;
41921;SDS011;27609;51.002;5.354;2023-07-20T14:14:06;2.15;;;1.20;;
41921;SDS011;27609;51.002;5.354;2023-07-20T14:16:32;2.95;;;1.50;;
41921;SDS011;27609;51.002;5.354;2023-07-20T14:18:58;4.00;;;1.10;;
41921;SDS011;27609;51.002;5.354;2023-07-20T14:21:24;1.15;;;1.00;;
41921;SDS011;27609;51.002;5.354;2023-07-20T14:23:50;1.83;;;1.15;;
41921;SDS011;27609;51.002;5.354;2023-07-20T14:26:18;3.15;;;0.90;;
41921;SDS011;27609;51.002;5.354;2023-07-20T14:28:44;1.25;;;1.15;;
41921;SDS011;27609;51.002;5.354;2023-07-20T14:31:09;2.30;;;1.15;;
41921;SDS011;27609;51.002;5.354;2023-07-20T14:33:35;1.75;;;1.05;;
41921;SDS011;27609;51.002;5.354;2023-07-20T14:36:01;1.63;;;1.02;;
41921;SDS011;27609;51.002;5.354;2023-07-20T14:38:28;1.50;;;0.90;;
41921;SDS011;27609;51.002;5.354;2023-07-20T14:40:54;1.85;;;1.00;;
41921;SDS011;27609;51.002;5.354;2023-07-20T14:43:20;2.55;;;1.08;;
41921;SDS011;27609;51.002;5.354;2023-07-20T14:45:46;1.08;;;0.98;;
41921;SDS011;27609;51.002;5.354;2023-07-20T14:48:12;1.63;;;1.20;;
41921;SDS011;27609;51.002;5.354;2023-07-20T14:50:37;1.20;;;1.10;;
41921;SDS011;27609;51.002;5.354;2023-07-20T14:53:03;2.35;;;1.02;;
41921;SDS011;27609;51.002;5.354;2023-07-20T14:55:28;0.95;;;0.90;;
41921;SDS011;27609;51.002;5.354;2023-07-20T14:57:54;4.05;;;1.17;;
41921;SDS011;27609;51.002;5.354;2023-07-20T15:00:20;0.80;;;0.80;;
41921;SDS011;27609;51.002;5.354;2023-07-20T15:02:46;1.65;;;1.30;;
41921;SDS011;27609;51.002;5.354;2023-07-20T15:05:11;6.97;;;1.20;;
41921;SDS011;27609;51.002;5.354;2023-07-20T15:07:45;1.05;;;0.95;;
41921;SDS011;27609;51.002;5.354;2023-07-20T15:10:10;1.48;;;0.82;;